Rizokarpason, Cyprus
Current Conditions -  °F | °C
As of 3:20 PM on Friday 24 Oct 2014 (Local Time) from LCEN Reporting Station
Scattered Clouds Scattered Clouds  
Wind Chill: 81°   Ceiling: Unl
Heat Index: 81°   Visibility: 6mi
Dew Point: 57°   Wind: 15mph
Humidity: 45%   Direction: 210°SSW
Pressure: 29.97"   Gusts: NA
Location:  35.58°N, 34.4°E
Report Text: LCEN 241220Z 21013KT 9999 FEW025CB SCT030 27/14 Q1015 NOSIG
Loading
Personal Weather Stations






























Interactive Weather Map
Tropical Storm Tracking
New forecast layout! Learn more

10-Day Weather Forecast

Advertisements
Track Severe Weather on mobile